Alpena, MI

10:48 PM EDT on May 25, 2015 (GMT -0400)
Oscoda-Wurtsmith | | Change Station
CLOSE
Current Station
Airport
Location: Oscoda,
Elevation: 633 ft
Nearby Weather Stations

Elev 633 ft 44.45 °N, 83.39 °W | Updated 15 minutes ago

Clear
Clear
69 °F
Feels Like 69 °F
N
9
Wind Variable Wind from SW

Today
High -- | Low -- °F
--% Chance of Precip.
Yesterday
High -- | Low -- °F
Precip. -- in
5:55 AM 9:07 PM
First Quarter, 54% visible
Pressure 29.89 in
Visibility 10.0 miles
Clouds Clear
Dew Point 61 °F
Humidity 75%
Rainfall 0.17 in
Snow Depth Not available.
UV 0 out of 12
Pollen 1.00 out of 12
Air Quality Not available.
Flu Activity Sporadic
METAR KOSC 260233Z AUTO 23008KT 10SM CLR 20/16 A2989 RMK AO2 T02070161

More Conditions Fewer Conditions

Pressure 29.89 in
Visibility 10.0 miles
Clouds Clear
Dew Point 61 °F
Humidity 75%
Rainfall 0.17 in
Snow Depth Not available.
UV 0 out of 12
Pollen 1.00 out of 12
Air Quality Not available.
Flu Activity Sporadic
METAR KOSC 260233Z AUTO 23008KT 10SM CLR 20/16 A2989 RMK AO2 T02070161

More Conditions Fewer Conditions

Nowcast | as of 9:00 PM EDT on May 25, 2015

At 10 PM...partly cloudy. Temperature 68. Southwest winds 12 mph. At 12 am...partly cloudy. Temperature 64. Southwest winds 10 mph. At 2 am...partly cloudy. Temperature 63. Southwest winds 9 mph. At 4 am...partly cloudy. Temperature 60. Southwest winds 8 mph.

×

10-Day Weather Forecast

Almanac

Astronomy

May. 25, 2015 Rise Set
Actual Time
Civil Twilight
Nautical Twilight
Astronomical Twilight
Moon
Length of Visible Light
Length of Day
Tomorrow will be .
, % of the Moon is Illuminated

Today's Extremes

State Highs State Lows

Community

WunderPhotos

Upload Photos

1,824,238 photos uploaded!

WunderBlogs® & News

Nearby

Air Quality

  Air Quality AQ Index Pollutant
Not available.

Snow Depth

Station Depth Elevation

Earthquake Activity

City Distance Mag. Time & Date
Minimum magnitude displayed is 2.5.

Coastal Water Temperatures

Place Temperature

Stations

Nearby Weather Stations

Station Location Temp. Windchill Dew Point Humidity Wind Precip. Elev Updated Type